Pagina principale
METAR-TAF:

METAR-TAF

Aeroporti :

Bolzano, Italia

latitudine: 46-28N, longitudine: 011-20E, altezza: 262 m

Osservazione

Il bollettino è stato emesso 58 minuti fa, alle 07:50 UTC
Vento 2 kt da direzioni variabili
Temperature 17°C
Umidità 59%
Pressione 1026 hPa
Visibilità 10 km o più
nessuna nube inferiore a 1500 m e nessun cumulonembo

METAR: LIPB 140750Z VRB02KT CAVOK 17/09 Q1026

Ora: 10:48 (08:48 UTC)

Previsione

Il bollettino è stato emesso 3 ore e 48 minuti fa, alle 05:00 UTC
Previsione valida dal 14 alle 06 UTC al 15 alle 06 UTC
Vento 4 kt da direzioni variabili
Visibilità 10 km o più
nessuna nube inferiore a 1500 m e nessun cumulonembo

TAF: LIPB 140500Z 1406/1506 VRB04KT CAVOK

Osservazioni e previsioni meteorologiche di più di 4000 aeroporti (messaggi METAR e TAF).

Le stazioni disponibili sono rappresentate dai dischi gialli e rossi sulla carta.

Puntare il mouse per vedere il nome della stazione.

Clicca sopra per visualizzare le osservazioni e previsioni meteorologiche.

Per cambiare la mappa : fare clic sui pulsanti verdi con una croce nera per ingrandire, il pulsante verde con un trattino per diminuire, o sulla freccia verde per le mappe adiacenti.


METAR-TAF: